Time;durP1;ratioP1;P1;durP2;ratioP2;P2;SDS_P1;SDS_P2;PMS_P1;PMS_P2;Temp;Humidity;BMP_temperature;BMP_pressure;BME280_temperature;BME280_humidity;BME280_pressure;Samples;Min_cycle;Max_cycle;Signal;HPM_P1;HPM_P2
2021/12/14 00:01:14;;;;;;;5.00;4.10;;;;;;;3.64;65.95;94895.97;5086034;28;20467;-72
2021/12/14 00:03:42;;;;;;;4.17;3.57;;;;;;;3.79;66.51;94903.22;5084837;28;20423;-73
2021/12/14 00:06:10;;;;;;;6.33;5.77;;;;;;;4.23;64.89;94905.91;5084729;28;20397;-72
2021/12/14 00:08:47;;;;;;;5.60;5.03;;;;;;;3.90;65.75;94897.84;5086326;28;20418;-74
2021/12/14 00:11:31;;;;;;;5.50;4.57;;;;;;;3.88;65.91;94907.53;5087430;28;20380;-73
2021/12/14 00:16:46;;;;;;;6.93;6.33;;;;;;;3.95;65.45;94898.22;5064796;28;20461;-71
2021/12/14 00:19:12;;;;;;;5.20;4.40;;;;;;;4.08;64.85;94898.66;5085649;28;20467;-72
2021/12/14 00:21:42;;;;;;;6.00;4.87;;;;;;;3.54;66.21;94895.19;5085985;28;20459;-71
2021/12/14 00:24:14;;;;;;;5.40;4.90;;;;;;;3.63;65.95;94904.69;5085749;28;20200;-71
2021/12/14 00:26:47;;;;;;;4.90;4.47;;;;;;;3.75;65.69;94907.06;5085754;28;20372;-72
2021/12/14 00:29:18;;;;;;;5.20;4.70;;;;;;;3.70;66.52;94905.72;5086421;28;20457;-72
2021/12/14 00:31:43;;;;;;;4.53;4.13;;;;;;;3.78;66.38;94911.97;5069141;28;20421;-72
2021/12/14 00:34:10;;;;;;;4.97;4.60;;;;;;;4.18;64.86;94908.13;5065841;28;20416;-72
2021/12/14 00:36:37;;;;;;;5.03;4.55;;;;;;;4.01;65.45;94907.97;5066023;28;20177;-72
2021/12/14 00:39:05;;;;;;;5.93;5.20;;;;;;;4.06;65.45;94910.09;5065924;28;20173;-73
2021/12/14 00:41:36;;;;;;;5.60;4.27;;;;;;;4.16;64.83;94917.84;5064236;28;20435;-72
2021/12/14 00:44:03;;;;;;;4.90;4.37;;;;;;;4.35;64.06;94919.47;5064930;28;20796;-73
2021/12/14 00:46:28;;;;;;;6.60;5.00;;;;;;;4.19;64.59;94920.09;5064547;28;20401;-72
2021/12/14 00:48:54;;;;;;;4.93;4.53;;;;;;;4.10;64.89;94917.44;5064805;28;20931;-72
2021/12/14 00:51:26;;;;;;;6.77;6.10;;;;;;;3.93;66.20;94915.66;5064696;28;20227;-72
2021/12/14 00:53:52;;;;;;;6.20;5.43;;;;;;;4.15;65.26;94913.59;5064884;28;20170;-72
2021/12/14 00:56:17;;;;;;;5.57;5.07;;;;;;;4.29;64.44;94906.13;5067002;28;20828;-72
2021/12/14 00:58:44;;;;;;;5.93;5.30;;;;;;;4.32;64.57;94915.38;5068680;28;20179;-72
2021/12/14 01:01:23;;;;;;;5.30;4.70;;;;;;;3.62;65.99;94915.16;5068689;28;20170;-71
2021/12/14 01:03:53;;;;;;;6.60;5.07;;;;;;;4.37;63.94;94918.34;5068876;28;20431;-71
2021/12/14 01:06:23;;;;;;;5.13;4.57;;;;;;;4.28;64.35;94914.03;5068483;28;20541;-72
2021/12/14 01:08:51;;;;;;;5.47;5.00;;;;;;;4.20;64.74;94914.78;5068656;28;20421;-72
2021/12/14 01:11:25;;;;;;;5.10;4.70;;;;;;;3.91;65.71;94920.19;5068475;28;20401;-71
2021/12/14 01:13:59;;;;;;;7.77;5.60;;;;;;;4.11;65.30;94918.25;5067310;28;20432;-71
2021/12/14 01:16:48;;;;;;;3.67;3.23;;;;;;;3.86;65.59;94914.63;5068497;28;20436;-71
2021/12/14 01:19:24;;;;;;;5.23;4.80;;;;;;;4.04;64.46;94919.81;5068251;28;20464;-72
2021/12/14 01:22:53;;;;;;;5.80;4.70;;;;;;;3.65;66.54;94909.72;5068306;28;20389;-72
2021/12/14 01:27:28;;;;;;;5.50;5.00;;;;;;;4.20;64.87;94911.38;5068201;28;20424;-71
2021/12/14 01:29:55;;;;;;;5.80;5.30;;;;;;;4.23;65.21;94913.66;5068275;28;20381;-71
2021/12/14 01:32:24;;;;;;;5.18;4.68;;;;;;;4.09;65.04;94910.63;5068173;28;20412;-72
2021/12/14 01:34:50;;;;;;;5.67;4.90;;;;;;;3.97;65.49;94911.81;5066546;28;20220;-71
2021/12/14 01:37:21;;;;;;;5.63;4.43;;;;;;;4.05;65.37;94911.88;5067921;28;20405;-72
2021/12/14 01:40:17;;;;;;;5.10;4.60;;;;;;;4.12;64.82;94914.72;5068268;28;20554;-72
2021/12/14 01:42:43;;;;;;;7.43;5.67;;;;;;;4.39;64.75;94910.41;5066727;28;20425;-72
2021/12/14 01:45:20;;;;;;;5.80;5.30;;;;;;;3.85;65.42;94907.81;5067868;28;20397;-72
2021/12/14 01:47:49;;;;;;;3.50;3.20;;;;;;;3.94;65.99;94906.94;5066544;28;20431;-72
2021/12/14 01:50:40;;;;;;;6.27;5.27;;;;;;;4.49;64.56;94911.94;5067697;28;20408;-72
2021/12/14 01:53:06;;;;;;;6.67;6.07;;;;;;;3.99;65.63;94909.91;5067378;28;20506;-72
2021/12/14 01:55:34;;;;;;;6.33;5.73;;;;;;;3.79;66.10;94903.22;5067678;28;20488;-71
2021/12/14 01:58:03;;;;;;;6.13;5.37;;;;;;;4.28;64.84;94906.28;5067724;28;20435;-71
2021/12/14 02:00:35;;;;;;;4.70;4.23;;;;;;;4.50;63.99;94921.34;5067500;28;20769;-73
2021/12/14 02:03:04;;;;;;;4.97;4.57;;;;;;;4.05;65.56;94908.50;5067225;28;20935;-72
2021/12/14 02:05:38;;;;;;;6.47;4.80;;;;;;;3.89;66.23;94912.56;5067405;28;20404;-72
2021/12/14 02:08:14;;;;;;;6.30;4.90;;;;;;;4.08;65.61;94908.22;5066053;28;20428;-72
2021/12/14 02:10:41;;;;;;;5.63;5.10;;;;;;;3.92;65.67;94906.25;5067349;28;20381;-72
2021/12/14 02:13:07;;;;;;;6.13;5.63;;;;;;;4.00;65.64;94910.72;5067164;28;20449;-72
2021/12/14 02:15:41;;;;;;;4.00;3.63;;;;;;;3.70;66.70;94905.72;5067067;28;20448;-72
2021/12/14 02:18:12;;;;;;;7.47;6.73;;;;;;;4.16;65.18;94917.84;5067202;28;20449;-73
2021/12/14 02:20:38;;;;;;;8.87;6.47;;;;;;;4.13;65.41;94912.94;5066858;28;20483;-72
2021/12/14 02:23:06;;;;;;;6.97;5.33;;;;;;;4.35;65.07;94911.69;5065569;28;20423;-72
2021/12/14 02:25:32;;;;;;;5.40;5.00;;;;;;;3.90;65.66;94908.19;5067082;28;20408;-72
2021/12/14 02:28:02;;;;;;;6.93;6.33;;;;;;;4.14;65.80;94912.00;5067054;28;20417;-72
2021/12/14 02:30:30;;;;;;;6.73;6.00;;;;;;;4.03;65.77;94915.59;5066999;28;20150;-71
2021/12/14 02:32:57;;;;;;;5.80;5.20;;;;;;;4.00;65.86;94911.50;5066880;28;20417;-72
2021/12/14 02:35:27;;;;;;;5.70;5.20;;;;;;;4.21;65.58;94907.81;5066984;28;20456;-72
2021/12/14 02:37:58;;;;;;;5.40;4.70;;;;;;;3.67;67.03;94915.56;5065398;28;20413;-72
2021/12/14 02:40:56;;;;;;;5.10;4.20;;;;;;;4.10;66.14;94916.66;5066341;28;20936;-72
2021/12/14 02:43:47;;;;;;;6.20;5.50;;;;;;;3.75;67.66;94912.25;5066915;28;20421;-72
2021/12/14 02:46:18;;;;;;;3.80;3.50;;;;;;;3.60;68.06;94920.47;5066027;28;20414;-72
2021/12/14 02:48:48;;;;;;;6.27;5.67;;;;;;;4.27;66.18;94920.19;5066611;28;20490;-73
2021/12/14 02:51:20;;;;;;;7.50;6.80;;;;;;;3.70;68.31;94916.06;5066370;28;20390;-72
2021/12/14 02:53:47;;;;;;;6.22;5.43;;;;;;;3.92;67.22;94927.78;5066525;28;20435;-72
2021/12/14 02:56:19;;;;;;;7.10;5.67;;;;;;;4.02;67.61;94921.72;5066200;28;20182;-72
2021/12/14 02:58:47;;;;;;;7.30;6.60;;;;;;;3.59;68.80;94923.22;5066275;28;20421;-73
2021/12/14 03:01:14;;;;;;;6.83;6.23;;;;;;;3.64;68.46;94926.19;5066288;28;20412;-72
2021/12/14 03:03:40;;;;;;;5.47;5.00;;;;;;;3.56;68.64;94926.91;5066110;28;20427;-72
2021/12/14 03:06:09;;;;;;;7.70;5.63;;;;;;;3.81;68.30;94933.16;5066358;28;20496;-72
2021/12/14 03:08:44;;;;;;;6.23;5.63;;;;;;;4.05;67.22;94930.00;5066355;28;20428;-72
2021/12/14 03:11:11;;;;;;;4.87;4.47;;;;;;;3.56;68.46;94933.84;5066443;28;20434;-71
2021/12/14 03:13:51;;;;;;;6.73;6.10;;;;;;;3.45;69.54;94933.09;5064896;28;20611;-72
2021/12/14 03:16:29;;;;;;;6.50;5.80;;;;;;;3.59;68.42;94929.22;5066496;28;20539;-72
2021/12/14 03:18:58;;;;;;;6.27;5.23;;;;;;;3.58;68.92;94937.91;5064486;28;20465;-72
2021/12/14 03:21:28;;;;;;;6.93;6.23;;;;;;;3.49;69.18;94933.59;5066115;28;20423;-71
2021/12/14 03:23:58;;;;;;;6.20;5.60;;;;;;;3.91;68.12;94933.13;5066238;28;20417;-71
2021/12/14 03:26:28;;;;;;;6.47;5.83;;;;;;;3.61;68.95;94932.47;5066199;28;20409;-71
2021/12/14 03:28:56;;;;;;;6.47;4.63;;;;;;;3.55;68.49;94930.47;5064725;28;20516;-72
2021/12/14 03:31:25;;;;;;;5.97;5.37;;;;;;;3.61;69.01;94927.28;5065866;28;20428;-71
2021/12/14 03:33:59;;;;;;;8.40;5.60;;;;;;;3.78;67.86;94927.50;5067286;28;20436;-72
2021/12/14 03:36:33;;;;;;;6.43;5.83;;;;;;;3.67;68.75;94931.09;5066978;28;20611;-72
2021/12/14 03:39:05;;;;;;;6.57;5.90;;;;;;;4.01;67.33;94933.06;5066962;28;20424;-72
2021/12/14 03:41:37;;;;;;;6.60;6.00;;;;;;;3.77;68.01;94934.41;5065210;28;20424;-73
2021/12/14 03:44:13;;;;;;;7.50;6.80;;;;;;;3.82;68.12;94932.22;5066727;28;20421;-72
2021/12/14 03:46:48;;;;;;;6.23;5.67;;;;;;;4.00;67.54;94927.03;5066506;28;20392;-72
2021/12/14 03:49:15;;;;;;;7.30;6.60;;;;;;;4.20;66.72;94932.09;5065129;28;20416;-72
2021/12/14 03:51:41;;;;;;;8.07;5.83;;;;;;;4.00;67.17;94928.81;5064769;28;20456;-72
2021/12/14 03:54:07;;;;;;;5.90;5.40;;;;;;;3.84;68.38;94939.84;5066440;28;20432;-71
2021/12/14 03:56:33;;;;;;;7.50;6.70;;;;;;;3.72;68.66;94934.06;5066193;28;20535;-72
2021/12/14 03:58:58;;;;;;;7.37;6.70;;;;;;;3.69;69.11;94942.91;5065588;28;20515;-72
2021/12/14 04:01:28;;;;;;;6.63;5.97;;;;;;;3.59;69.02;94941.34;5067144;28;20577;-72
2021/12/14 04:04:15;;;;;;;7.63;6.63;;;;;;;3.88;68.84;94948.94;5066633;28;20178;-72
2021/12/14 04:06:44;;;;;;;6.97;5.60;;;;;;;3.58;69.08;94948.28;5066344;28;20434;-72
2021/12/14 04:09:13;;;;;;;7.70;6.90;;;;;;;3.61;69.28;94944.59;5065061;28;20415;-72
2021/12/14 04:11:40;;;;;;;8.77;7.03;;;;;;;3.67;69.15;94951.78;5066738;28;20411;-72
2021/12/14 04:14:07;;;;;;;9.90;8.53;;;;;;;3.16;71.94;94948.72;5065630;28;20425;-72
2021/12/14 04:16:35;;;;;;;7.27;6.60;;;;;;;3.56;70.42;94950.19;5066724;28;20444;-72
2021/12/14 04:19:06;;;;;;;10.50;8.90;;;;;;;3.90;69.37;94944.44;5065606;28;20465;-72
2021/12/14 04:21:38;;;;;;;7.83;7.10;;;;;;;3.87;69.03;94955.06;5066162;28;20384;-72
2021/12/14 04:24:06;;;;;;;7.23;6.47;;;;;;;3.53;70.54;94953.09;5065144;28;20423;-72
2021/12/14 04:26:31;;;;;;;7.60;6.90;;;;;;;3.51;70.29;94953.22;5065098;28;20396;-72
2021/12/14 04:28:59;;;;;;;8.30;7.50;;;;;;;3.68;69.85;94961.16;5064700;28;20436;-72
2021/12/14 04:31:24;;;;;;;9.93;7.03;;;;;;;3.16;71.75;94964.22;5064303;28;20203;-73
2021/12/14 04:33:52;;;;;;;7.93;7.23;;;;;;;3.52;71.33;94964.38;5064580;28;20927;-72
2021/12/14 04:36:22;;;;;;;9.90;7.77;;;;;;;3.27;71.54;94961.47;5064650;28;20461;-72
2021/12/14 04:38:54;;;;;;;9.53;8.53;;;;;;;3.87;69.68;94968.00;5063356;28;20492;-72
2021/12/14 04:52:51;;;;;;;9.90;8.70;;;;;;;3.67;70.45;94968.13;5064301;28;20400;-72
2021/12/14 04:55:16;;;;;;;10.47;9.50;;;;;;;3.86;70.28;94968.97;5064035;28;20440;-73
2021/12/14 04:57:47;;;;;;;10.80;8.07;;;;;;;3.57;70.76;94967.34;5064718;28;20443;-72
2021/12/14 05:00:30;;;;;;;7.47;6.40;;;;;;;3.42;71.20;94969.59;5064687;28;20162;-72
2021/12/14 05:03:20;;;;;;;10.60;8.83;;;;;;;4.02;69.85;94965.75;5063221;28;20492;-72
2021/12/14 05:05:49;;;;;;;12.30;9.73;;;;;;;3.47;72.16;94970.00;5064765;28;20443;-72
2021/12/14 05:10:52;;;;;;;9.02;8.13;;;;;;;3.73;70.81;94974.50;5064853;28;20421;-73
2021/12/14 05:13:24;;;;;;;10.17;9.07;;;;;;;3.82;70.78;94972.81;5064916;28;20541;-72
2021/12/14 05:15:50;;;;;;;10.93;8.23;;;;;;;3.60;71.06;94969.63;5064531;28;20811;-72
2021/12/14 05:18:16;;;;;;;7.87;7.07;;;;;;;3.50;71.07;94974.06;5062675;28;20528;-72
2021/12/14 05:20:47;;;;;;;9.90;8.90;;;;;;;3.54;71.19;94972.00;5062863;28;20234;-72
2021/12/14 05:23:34;;;;;;;10.73;9.00;;;;;;;3.90;69.90;94978.09;5064132;28;20479;-72
2021/12/14 05:26:03;;;;;;;11.13;9.40;;;;;;;3.43;71.10;94968.63;5064546;28;20498;-72
2021/12/14 05:28:30;;;;;;;10.63;8.90;;;;;;;4.23;68.52;94973.25;5064521;28;20448;-73
2021/12/14 05:30:58;;;;;;;10.30;9.10;;;;;;;3.31;70.84;94970.56;5064462;28;20607;-72
2021/12/14 05:33:43;;;;;;;10.10;8.30;;;;;;;3.74;70.05;94967.53;5064056;28;20439;-73
2021/12/14 05:36:15;;;;;;;13.03;8.30;;;;;;;3.72;70.07;94973.69;5064093;28;20440;-72
2021/12/14 05:44:12;;;;;;;10.57;9.47;;;;;;;3.75;70.06;94977.75;5068093;28;20428;-73
2021/12/14 05:46:38;;;;;;;10.63;9.47;;;;;;;3.97;69.15;94980.91;5067994;28;20397;-72
2021/12/14 05:49:11;;;;;;;13.83;7.73;;;;;;;3.54;70.45;94993.50;5067984;28;20423;-71
2021/12/14 05:51:37;;;;;;;9.33;8.23;;;;;;;3.70;69.73;94985.94;5068014;28;20147;-73
2021/12/14 05:54:04;;;;;;;11.47;9.23;;;;;;;3.93;69.16;94988.16;5068057;28;20454;-72
2021/12/14 05:56:31;;;;;;;14.43;10.50;;;;;;;3.85;69.49;94998.41;5067971;28;20530;-72
2021/12/14 05:58:59;;;;;;;11.53;10.00;;;;;;;3.87;69.74;94993.88;5068069;28;20439;-72
2021/12/14 06:01:28;;;;;;;9.27;8.37;;;;;;;3.78;68.86;94995.59;5067856;28;20405;-72
2021/12/14 06:04:01;;;;;;;9.80;8.47;;;;;;;3.78;69.46;95003.34;5066444;28;20424;-72
2021/12/14 06:06:52;;;;;;;15.20;9.73;;;;;;;3.66;70.06;95007.91;5066912;28;20397;-72
2021/12/14 06:09:31;;;;;;;11.70;8.27;;;;;;;3.80;67.95;94998.03;5066640;28;20418;-71
2021/12/14 06:12:00;;;;;;;10.90;6.70;;;;;;;3.91;68.54;95005.63;5067943;28;20449;-72
2021/12/14 06:14:29;;;;;;;12.13;7.83;;;;;;;3.53;70.28;95007.41;5067667;28;20417;-72
2021/12/14 06:16:59;;;;;;;10.20;9.10;;;;;;;3.94;68.63;95005.31;5067765;28;20498;-72
2021/12/14 06:19:26;;;;;;;16.70;10.53;;;;;;;4.14;68.14;95010.41;5067243;28;20499;-71
2021/12/14 06:22:01;;;;;;;12.87;10.60;;;;;;;4.08;67.59;95007.41;5067269;28;20872;-72
2021/12/14 06:24:29;;;;;;;10.83;9.70;;;;;;;4.11;67.65;95011.47;5067179;28;20425;-72
2021/12/14 06:26:59;;;;;;;12.17;10.97;;;;;;;4.57;66.72;95008.84;5066847;28;20440;-72
2021/12/14 06:29:29;;;;;;;11.63;10.27;;;;;;;4.07;67.98;95016.13;5067540;28;20941;-72
2021/12/14 06:31:55;;;;;;;13.43;10.30;;;;;;;4.07;68.21;95021.31;5067403;28;20507;-72
2021/12/14 06:34:29;;;;;;;16.37;11.70;;;;;;;4.29;66.78;95019.28;5067132;28;20417;-72
2021/12/14 06:37:03;;;;;;;11.40;10.00;;;;;;;4.63;66.01;95019.47;5067240;28;20413;-73
2021/12/14 06:39:49;;;;;;;13.00;10.37;;;;;;;4.24;66.91;95026.69;5067228;28;20448;-72
2021/12/14 06:42:14;;;;;;;11.83;9.90;;;;;;;4.04;68.08;95025.97;5066682;28;20474;-72
2021/12/14 06:44:39;;;;;;;12.17;10.20;;;;;;;4.52;65.98;95024.88;5066788;28;20441;-72
2021/12/14 06:47:05;;;;;;;13.57;10.50;;;;;;;4.94;65.18;95033.81;5065235;28;20174;-73
2021/12/14 06:49:31;;;;;;;17.70;11.00;;;;;;;4.45;66.29;95031.59;5067304;28;20178;-72
2021/12/14 06:51:57;;;;;;;10.47;8.60;;;;;;;4.39;66.49;95030.41;5066955;28;20409;-72
2021/12/14 06:54:28;;;;;;;11.30;9.03;;;;;;;4.20;68.10;95035.72;5066011;28;20256;-72
2021/12/14 06:57:01;;;;;;;12.50;11.30;;;;;;;4.49;66.79;95035.50;5066718;28;20151;-72
2021/12/14 06:59:28;;;;;;;11.97;9.80;;;;;;;4.45;66.12;95040.16;5067107;28;20415;-72
2021/12/14 07:01:57;;;;;;;12.80;9.40;;;;;;;4.62;66.48;95037.75;5066593;28;20401;-72
2021/12/14 07:04:29;;;;;;;10.27;9.17;;;;;;;4.45;67.32;95049.72;5066278;28;20413;-72
2021/12/14 07:07:05;;;;;;;11.40;10.00;;;;;;;4.13;68.03;95045.81;5066374;28;20405;-72
2021/12/14 07:09:39;;;;;;;11.83;10.63;;;;;;;4.97;66.67;95054.25;5066786;28;20413;-72
2021/12/14 07:12:12;;;;;;;11.87;10.47;;;;;;;4.79;66.61;95052.47;5065117;28;20484;-73
2021/12/14 07:14:50;;;;;;;14.27;10.87;;;;;;;4.83;66.26;95047.81;5066220;28;21030;-73
2021/12/14 07:17:27;;;;;;;13.40;11.50;;;;;;;4.56;67.26;95057.28;5066585;28;20460;-72
2021/12/14 07:19:58;;;;;;;15.97;9.60;;;;;;;4.81;66.30;95052.34;5064884;28;20472;-71
2021/12/14 07:22:33;;;;;;;14.30;12.87;;;;;;;4.92;66.26;95056.50;5066478;28;20381;-72
2021/12/14 07:25:05;;;;;;;11.97;10.77;;;;;;;5.17;65.63;95060.09;5066431;28;20436;-72
2021/12/14 07:27:37;;;;;;;12.70;11.43;;;;;;;4.79;66.85;95059.44;5066158;28;20414;-72
2021/12/14 07:30:27;;;;;;;13.50;11.30;;;;;;;5.09;66.46;95064.25;5066296;28;20473;-73
2021/12/14 07:32:55;;;;;;;12.47;11.10;;;;;;;5.25;65.73;95067.94;5066195;28;20419;-72
2021/12/14 07:35:28;;;;;;;12.33;10.77;;;;;;;5.08;66.29;95072.16;5064671;28;20453;-72
2021/12/14 07:38:19;;;;;;;14.67;11.70;;;;;;;5.44;65.16;95072.13;5064521;28;20428;-72
2021/12/14 07:40:54;;;;;;;14.53;11.70;;;;;;;5.35;65.32;95068.66;5058612;28;20423;-72
2021/12/14 07:43:28;;;;;;;14.83;12.53;;;;;;;5.55;65.51;95074.47;5065606;28;20628;-72
2021/12/14 07:45:54;;;;;;;13.67;12.27;;;;;;;5.19;65.92;95069.34;5065846;28;20436;-72
2021/12/14 07:48:23;;;;;;;16.93;12.90;;;;;;;5.26;66.05;95069.56;5065768;28;20424;-73
2021/12/14 07:50:53;;;;;;;13.23;11.80;;;;;;;5.23;66.09;95075.84;5065184;28;20401;-72
2021/12/14 07:53:42;;;;;;;12.27;9.47;;;;;;;4.58;66.63;95075.28;5065580;28;20441;-73
2021/12/14 07:56:20;;;;;;;14.97;11.83;;;;;;;4.85;66.62;95067.44;5065007;28;20433;-73
2021/12/14 07:58:48;;;;;;;14.93;12.50;;;;;;;5.07;66.33;95073.97;5063942;28;20578;-72
2021/12/14 08:01:14;;;;;;;16.90;13.77;;;;;;;5.53;65.66;95081.59;5063618;28;20409;-72
2021/12/14 08:03:40;;;;;;;13.47;11.00;;;;;;;4.98;66.17;95076.63;5065214;28;20417;-72
2021/12/14 08:06:10;;;;;;;12.63;10.60;;;;;;;5.31;65.32;95087.25;5064856;28;20405;-72
2021/12/14 08:08:45;;;;;;;13.43;11.67;;;;;;;5.46;64.92;95088.34;5065237;28;20413;-72
2021/12/14 08:11:30;;;;;;;12.63;10.57;;;;;;;5.75;64.28;95085.47;5064159;28;20393;-72
2021/12/14 08:14:01;;;;;;;16.30;10.93;;;;;;;5.90;63.26;95093.50;5065572;28;20421;-72
2021/12/14 08:16:49;;;;;;;14.07;12.03;;;;;;;5.77;63.98;95093.91;5065250;28;20520;-72
2021/12/14 08:19:33;;;;;;;12.10;10.93;;;;;;;5.52;64.35;95094.72;5065438;28;20524;-72
2021/12/14 08:22:04;;;;;;;13.73;10.63;;;;;;;5.58;63.87;95099.31;5065143;28;20484;-73
2021/12/14 08:24:30;;;;;;;15.27;13.67;;;;;;;5.72;64.53;95092.75;5065275;28;20487;-72
2021/12/14 08:26:58;;;;;;;12.23;10.97;;;;;;;5.61;64.38;95094.63;5065078;28;20408;-72
2021/12/14 08:29:27;;;;;;;12.50;10.83;;;;;;;6.00;63.54;95094.25;5064948;28;20275;-72
2021/12/14 08:32:02;;;;;;;13.60;12.20;;;;;;;6.18;63.31;95096.75;5065127;28;20427;-72
2021/12/14 08:34:32;;;;;;;13.10;11.80;;;;;;;6.32;62.70;95095.34;5064913;28;20416;-72
2021/12/14 08:37:09;;;;;;;8.23;7.37;;;;;;;5.41;63.46;95101.00;5064714;28;20416;-73
2021/12/14 08:40:00;;;;;;;10.57;9.53;;;;;;;4.75;65.87;95097.81;5065000;28;20452;-72
2021/12/14 08:43:22;;;;;;;12.20;8.40;;;;;;;4.57;67.05;95091.78;5064921;28;20416;-72
2021/12/14 08:45:46;;;;;;;13.07;11.43;;;;;;;4.84;67.79;95086.56;5063554;28;20413;-72
2021/12/14 08:48:30;;;;;;;12.10;9.70;;;;;;;5.16;66.02;95084.41;5064344;28;20424;-72
2021/12/14 08:51:13;;;;;;;16.60;12.50;;;;;;;5.72;64.49;95082.38;5064631;28;20461;-72
2021/12/14 08:53:44;;;;;;;14.80;11.03;;;;;;;5.72;64.44;95088.38;5064913;28;20432;-72
2021/12/14 08:56:12;;;;;;;14.27;12.77;;;;;;;5.59;64.73;95087.97;5064570;28;20445;-73
2021/12/14 08:58:39;;;;;;;12.60;11.30;;;;;;;5.56;64.77;95085.66;5063162;28;20440;-72
2021/12/14 09:01:14;;;;;;;13.90;12.10;;;;;;;5.88;63.54;95079.88;5063189;28;20424;-73
2021/12/14 09:03:45;;;;;;;13.90;11.47;;;;;;;5.89;63.66;95076.28;5063475;28;20432;-72
2021/12/14 09:06:16;;;;;;;10.73;9.20;;;;;;;5.46;64.32;95083.16;5063527;28;20397;-71
2021/12/14 09:08:44;;;;;;;12.57;11.10;;;;;;;5.65;64.52;95075.19;5063857;28;20425;-72
2021/12/14 09:11:12;;;;;;;11.90;9.53;;;;;;;5.27;65.51;95072.03;5064870;28;20420;-72
2021/12/14 09:13:39;;;;;;;8.93;8.03;;;;;;;5.73;64.10;95076.19;5063382;28;20452;-72
2021/12/14 09:16:13;;;;;;;14.43;11.07;;;;;;;5.63;64.22;95071.94;5064624;28;20548;-70
2021/12/14 09:18:43;;;;;;;15.50;11.17;;;;;;;6.05;63.47;95076.41;5067448;28;20526;-72
2021/12/14 09:21:21;;;;;;;13.73;12.20;;;;;;;5.91;63.76;95074.34;5068418;28;20404;-72
2021/12/14 09:23:51;;;;;;;15.30;10.77;;;;;;;6.00;63.35;95078.66;5068839;28;20765;-72
2021/12/14 09:26:22;;;;;;;14.10;12.53;;;;;;;6.27;62.85;95068.22;5068761;28;20863;-72
2021/12/14 09:28:48;;;;;;;12.70;11.37;;;;;;;6.34;62.21;95070.03;5066550;28;20419;-72
2021/12/14 09:31:21;;;;;;;14.17;12.43;;;;;;;6.15;63.18;95065.09;5068033;28;20513;-72
2021/12/14 09:33:48;;;;;;;13.33;11.80;;;;;;;6.77;61.77;95063.00;5068059;28;20492;-72
2021/12/14 09:36:16;;;;;;;12.30;11.10;;;;;;;6.73;61.71;95056.44;5067649;28;20846;-71
2021/12/14 09:38:49;;;;;;;15.40;12.00;;;;;;;6.89;60.47;95047.06;5067833;28;20423;-73
2021/12/14 09:41:18;;;;;;;14.43;12.00;;;;;;;6.98;61.16;95046.06;5068407;28;20733;-72
2021/12/14 09:43:46;;;;;;;16.67;14.70;;;;;;;6.64;62.05;95049.63;5068131;28;20555;-72
2021/12/14 09:46:13;;;;;;;15.70;14.00;;;;;;;7.30;60.48;95041.84;5068082;28;20540;-72
2021/12/14 09:48:42;;;;;;;14.47;12.97;;;;;;;7.06;60.57;95043.50;5068067;28;20451;-72
2021/12/14 09:51:15;;;;;;;13.30;11.60;;;;;;;6.90;61.37;95039.09;5046698;28;20403;-72
2021/12/14 09:53:46;;;;;;;16.00;12.63;;;;;;;7.00;60.60;95036.31;5048453;28;20410;-72
2021/12/14 09:56:14;;;;;;;14.67;13.17;;;;;;;7.19;59.66;95036.00;5047744;28;20501;-72
2021/12/14 09:58:43;;;;;;;16.57;13.20;;;;;;;6.91;60.90;95034.72;5047502;28;20921;-72
2021/12/14 10:01:16;;;;;;;16.93;12.67;;;;;;;7.29;59.58;95032.44;5047656;28;20407;-72
2021/12/14 10:03:44;;;;;;;14.60;13.10;;;;;;;6.38;62.34;95034.94;5047544;28;20433;-72
2021/12/14 10:06:13;;;;;;;19.37;13.77;;;;;;;6.47;60.88;95033.19;5047486;28;20425;-72
2021/12/14 10:08:44;;;;;;;15.53;13.60;;;;;;;6.03;63.66;95041.97;5047777;28;20418;-72
2021/12/14 10:11:23;;;;;;;10.43;9.20;;;;;;;5.43;64.94;95034.19;5047804;28;20389;-72
2021/12/14 10:13:51;;;;;;;16.13;11.53;;;;;;;4.84;67.07;95039.91;5047525;28;20425;-72
2021/12/14 10:16:16;;;;;;;13.97;8.57;;;;;;;4.63;67.97;95035.00;5047158;28;20512;-72
2021/12/14 10:18:46;;;;;;;14.73;12.80;;;;;;;5.46;65.83;95034.69;5047167;28;20429;-72
2021/12/14 10:21:26;;;;;;;17.30;14.00;;;;;;;5.51;66.12;95036.00;5047413;28;20152;-73
2021/12/14 10:23:52;;;;;;;18.63;14.43;;;;;;;5.59;65.67;95034.25;5066824;28;20428;-72
2021/12/14 10:26:22;;;;;;;15.37;13.77;;;;;;;6.13;64.18;95033.22;5066810;28;20401;-72
2021/12/14 10:28:52;;;;;;;22.30;15.80;;;;;;;6.10;64.13;95033.56;5065490;28;20425;-72
2021/12/14 10:31:38;;;;;;;21.83;15.23;;;;;;;5.70;65.06;95027.19;5065015;28;20405;-72
2021/12/14 10:34:08;;;;;;;14.30;12.67;;;;;;;5.74;64.18;95021.50;5066689;28;20903;-71
2021/12/14 10:36:39;;;;;;;19.13;13.10;;;;;;;5.76;64.86;95021.38;5066768;28;21005;-70
2021/12/14 10:44:36;;;;;;;16.90;13.30;;;;;;;6.03;64.20;95025.56;5066831;28;20427;-71
2021/12/14 10:47:03;;;;;;;19.40;12.80;;;;;;;5.26;66.22;95028.88;5066673;28;20382;-72
2021/12/14 10:49:29;;;;;;;16.97;13.60;;;;;;;5.67;64.61;95025.69;5066693;28;20468;-72
2021/12/14 10:52:02;;;;;;;17.63;12.70;;;;;;;5.94;64.80;95016.91;5066641;28;20417;-72
2021/12/14 10:54:28;;;;;;;16.53;12.93;;;;;;;6.29;63.58;95009.09;5065020;28;20171;-72
2021/12/14 10:57:00;;;;;;;10.43;9.30;;;;;;;5.58;64.38;95016.25;5069642;28;20447;-72
2021/12/14 10:59:29;;;;;;;15.50;13.27;;;;;;;5.35;65.91;95018.53;5069343;28;20432;-72
2021/12/14 11:01:55;;;;;;;19.80;12.27;;;;;;;5.48;65.55;95011.97;5066222;28;20417;-71
2021/12/14 11:04:38;;;;;;;12.53;10.63;;;;;;;5.51;66.23;95015.25;5066399;28;20449;-72
2021/12/14 11:07:08;;;;;;;10.87;7.47;;;;;;;5.40;65.42;95009.31;5060248;28;20421;-72
2021/12/14 11:09:40;;;;;;;19.17;13.87;;;;;;;5.63;65.00;95012.22;5044866;28;21000;-71
2021/12/14 11:12:14;;;;;;;15.00;9.83;;;;;;;4.62;68.34;95009.25;5044710;28;20500;-72
2021/12/14 11:14:40;;;;;;;17.47;14.50;;;;;;;5.18;67.86;95015.84;5046491;28;20446;-72
2021/12/14 11:19:57;;;;;;;16.47;14.70;;;;;;;5.36;66.88;95005.41;5045796;28;20239;-72
2021/12/14 11:22:32;;;;;;;16.87;14.83;;;;;;;4.40;69.02;95006.13;5044894;28;20414;-71
2021/12/14 11:25:19;;;;;;;17.77;11.30;;;;;;;4.59;68.88;94999.16;5066157;28;20381;-72
2021/12/14 11:27:50;;;;;;;18.23;14.73;;;;;;;5.60;65.91;94993.56;5066369;28;20461;-71
2021/12/14 11:30:24;;;;;;;19.90;15.80;;;;;;;5.45;66.79;94996.72;5065598;28;20416;-71
2021/12/14 11:33:15;;;;;;;20.13;16.23;;;;;;;5.39;66.72;95001.72;5065837;28;20451;-71
2021/12/14 11:35:46;;;;;;;22.17;18.40;;;;;;;5.73;66.21;94993.09;5064461;28;20529;-72
2021/12/14 11:38:31;;;;;;;22.43;17.47;;;;;;;5.94;65.51;94996.13;5064166;28;20417;-72
2021/12/14 11:41:03;;;;;;;21.50;16.47;;;;;;;5.29;66.72;95001.78;5045011;28;20939;-72
2021/12/14 11:43:30;;;;;;;23.30;17.40;;;;;;;5.72;65.31;94991.50;5045511;28;20422;-72
2021/12/14 11:45:57;;;;;;;22.40;16.17;;;;;;;5.82;65.44;94998.19;5044021;28;20406;-72
2021/12/14 11:48:31;;;;;;;18.20;15.10;;;;;;;5.89;64.42;94995.78;5045623;28;20512;-72
2021/12/14 11:50:58;;;;;;;22.60;17.07;;;;;;;5.83;65.00;94993.81;5045493;28;20395;-72
2021/12/14 11:53:23;;;;;;;21.87;17.33;;;;;;;5.84;65.46;94990.22;5045320;28;20491;-72
2021/12/14 11:55:50;;;;;;;16.73;13.87;;;;;;;5.52;65.71;94991.72;5045255;28;20450;-72
2021/12/14 11:58:26;;;;;;;23.13;16.20;;;;;;;5.99;64.48;94993.88;5045603;28;20183;-72
2021/12/14 12:01:01;;;;;;;21.73;17.27;;;;;;;6.05;64.16;94985.47;5052048;28;20416;-72
2021/12/14 12:03:38;;;;;;;20.30;13.67;;;;;;;5.68;65.26;94989.19;5063901;28;20424;-72
2021/12/14 12:06:44;;;;;;;16.30;13.13;;;;;;;5.37;65.99;94985.47;5065471;28;20385;-69
2021/12/14 12:09:32;;;;;;;21.90;16.53;;;;;;;5.90;65.42;94989.63;5044795;28;20444;-72
2021/12/14 12:12:04;;;;;;;22.60;16.07;;;;;;;5.74;65.10;94986.97;5043715;28;20440;-72
2021/12/14 12:14:37;;;;;;;29.00;19.00;;;;;;;5.75;65.75;94985.97;5045436;28;20476;-72
2021/12/14 12:17:08;;;;;;;26.87;20.40;;;;;;;6.31;64.36;94987.16;5045320;28;20433;-72
2021/12/14 12:19:35;;;;;;;25.77;19.43;;;;;;;6.60;63.26;94980.69;5044807;28;20462;-72
2021/12/14 12:22:07;;;;;;;25.27;20.87;;;;;;;6.55;63.20;94983.78;5044863;28;20520;-72
2021/12/14 12:24:44;;;;;;;19.90;16.13;;;;;;;6.28;62.93;94984.91;5045291;28;20422;-72
2021/12/14 12:27:18;;;;;;;23.20;17.50;;;;;;;6.14;63.72;94978.50;5045285;28;20434;-72
2021/12/14 12:29:43;;;;;;;19.73;15.53;;;;;;;6.31;63.41;94975.97;5043318;28;20933;-72